createdAt,value
2023-05-19T00:00:29.267Z,9.08
2023-05-19T00:01:29.113Z,9.08
2023-05-19T00:02:29.198Z,9.08
2023-05-19T00:03:29.137Z,9.04
2023-05-19T00:04:29.065Z,9.03
2023-05-19T00:05:29.069Z,9.00
2023-05-19T00:06:29.053Z,8.97
2023-05-19T00:07:29.030Z,8.93
2023-05-19T00:08:29.018Z,8.91
2023-05-19T00:09:29.015Z,8.88
2023-05-19T00:10:29.109Z,8.86
2023-05-19T00:11:28.996Z,8.86
2023-05-19T00:12:28.970Z,8.85
2023-05-19T00:13:28.972Z,8.86
2023-05-19T00:14:28.953Z,8.88
2023-05-19T00:15:28.959Z,8.86
2023-05-19T00:16:29.322Z,8.85
2023-05-19T00:17:28.959Z,8.83
2023-05-19T00:18:28.910Z,8.78
2023-05-19T00:19:28.981Z,8.75
2023-05-19T00:20:28.914Z,8.71
2023-05-19T00:21:28.878Z,8.67
2023-05-19T00:22:28.856Z,8.64
2023-05-19T00:23:28.860Z,8.64
2023-05-19T00:24:28.845Z,8.67
2023-05-19T00:25:28.853Z,8.68
2023-05-19T00:26:28.823Z,8.65
2023-05-19T00:27:28.815Z,8.65
2023-05-19T00:28:28.796Z,8.64
2023-05-19T00:29:28.798Z,8.61
2023-05-19T00:30:28.796Z,8.63
2023-05-19T00:31:28.799Z,8.60
2023-05-19T00:32:28.805Z,8.60
2023-05-19T00:33:28.745Z,8.58
2023-05-19T00:34:28.742Z,8.57
2023-05-19T00:35:28.717Z,8.54
2023-05-19T00:36:28.716Z,8.54
2023-05-19T00:37:28.700Z,8.50
2023-05-19T00:38:28.690Z,8.50
2023-05-19T00:39:28.694Z,8.49
2023-05-19T00:40:28.665Z,8.47
2023-05-19T00:41:28.657Z,8.49
2023-05-19T00:42:28.647Z,8.49
2023-05-19T00:43:28.649Z,8.46
2023-05-19T00:44:28.637Z,8.43
2023-05-19T00:45:28.618Z,8.42
2023-05-19T00:46:28.635Z,8.40
2023-05-19T00:47:28.613Z,8.39
2023-05-19T00:48:28.586Z,8.39
2023-05-19T00:49:28.568Z,8.36
2023-05-19T00:50:28.560Z,8.32
2023-05-19T00:51:28.546Z,8.29
2023-05-19T00:52:28.536Z,8.29
2023-05-19T00:53:28.539Z,8.27
2023-05-19T00:54:28.509Z,8.25
2023-05-19T00:55:28.506Z,8.25
2023-05-19T00:56:28.487Z,8.24
2023-05-19T00:57:28.492Z,8.24
2023-05-19T00:58:28.488Z,8.24
2023-05-19T00:59:28.470Z,8.21
2023-05-19T01:00:28.475Z,8.18
2023-05-19T01:01:28.543Z,8.14
2023-05-19T01:02:28.498Z,8.17
2023-05-19T01:03:28.509Z,8.13
2023-05-19T01:04:28.398Z,8.14
2023-05-19T01:05:28.397Z,8.17
2023-05-19T01:06:28.374Z,8.14
2023-05-19T01:07:28.381Z,8.14
2023-05-19T01:08:28.364Z,8.13
2023-05-19T01:09:28.349Z,8.14
2023-05-19T01:10:28.343Z,8.14
2023-05-19T01:11:28.338Z,8.17
2023-05-19T01:12:28.327Z,8.18
2023-05-19T01:13:28.307Z,8.17
2023-05-19T01:14:28.296Z,8.13
2023-05-19T01:15:28.279Z,8.13
2023-05-19T01:16:28.311Z,8.12
2023-05-19T01:17:28.328Z,8.09
2023-05-19T01:18:28.250Z,8.09
2023-05-19T01:19:28.243Z,8.12
2023-05-19T01:20:28.226Z,8.10
2023-05-19T01:21:28.221Z,8.09
2023-05-19T01:22:28.209Z,8.06
2023-05-19T01:23:28.188Z,8.04
2023-05-19T01:24:28.189Z,8.03
2023-05-19T01:25:28.182Z,8.02
2023-05-19T01:26:28.173Z,8.03
2023-05-19T01:27:28.146Z,8.02
2023-05-19T01:28:28.144Z,8.02
2023-05-19T01:29:28.126Z,8.04
2023-05-19T01:30:28.126Z,8.04
2023-05-19T01:31:28.126Z,8.06
2023-05-19T01:32:28.115Z,8.04
2023-05-19T01:33:28.079Z,8.06
2023-05-19T01:34:28.088Z,8.06
2023-05-19T01:35:28.066Z,8.06
2023-05-19T01:36:28.050Z,8.09
2023-05-19T01:37:28.040Z,8.07
2023-05-19T01:38:28.030Z,8.09
2023-05-19T01:39:28.023Z,8.09
2023-05-19T01:40:28.016Z,8.09
2023-05-19T01:41:27.992Z,8.04
2023-05-19T01:42:27.991Z,8.03
2023-05-19T01:43:27.967Z,8.00
2023-05-19T01:44:27.976Z,7.99
2023-05-19T01:45:27.951Z,7.95
2023-05-19T01:46:28.092Z,7.92
2023-05-19T01:47:27.962Z,7.86
2023-05-19T01:48:27.925Z,7.84
2023-05-19T01:49:27.916Z,7.81
2023-05-19T01:50:27.901Z,7.79
2023-05-19T01:51:27.884Z,7.77
2023-05-19T01:52:27.880Z,7.71
2023-05-19T01:53:27.882Z,7.69
2023-05-19T01:54:27.866Z,7.63
2023-05-19T01:55:27.848Z,7.58
2023-05-19T01:56:27.827Z,7.52
2023-05-19T01:57:27.817Z,7.50
2023-05-19T01:58:27.825Z,7.47
2023-05-19T01:59:27.797Z,7.42
2023-05-19T02:00:27.796Z,7.39
2023-05-19T02:01:27.829Z,7.34
2023-05-19T02:02:27.802Z,7.32
2023-05-19T02:03:27.781Z,7.32
2023-05-19T02:04:27.782Z,7.30
2023-05-19T02:05:27.732Z,7.29
2023-05-19T02:06:27.731Z,7.27
2023-05-19T02:07:27.724Z,7.26
2023-05-19T02:08:27.713Z,7.26
2023-05-19T02:09:27.681Z,7.26
2023-05-19T02:10:27.693Z,7.26
2023-05-19T02:11:27.677Z,7.30
2023-05-19T02:12:27.663Z,7.29
2023-05-19T02:13:27.640Z,7.30
2023-05-19T02:14:27.633Z,7.32
2023-05-19T02:15:27.613Z,7.32
2023-05-19T02:16:27.730Z,7.32
2023-05-19T02:17:27.616Z,7.30
2023-05-19T02:18:27.589Z,7.32
2023-05-19T02:19:27.718Z,7.30
2023-05-19T02:20:27.566Z,7.29
2023-05-19T02:21:27.563Z,7.26
2023-05-19T02:22:27.549Z,7.24
2023-05-19T02:23:27.524Z,7.26
2023-05-19T02:24:27.527Z,7.26
2023-05-19T02:25:27.509Z,7.26
2023-05-19T02:26:27.502Z,7.24
2023-05-19T02:27:27.492Z,7.24
2023-05-19T02:28:27.485Z,7.24
2023-05-19T02:29:27.465Z,7.26
2023-05-19T02:30:27.451Z,7.24
2023-05-19T02:31:27.467Z,7.26
2023-05-19T02:32:27.465Z,7.24
2023-05-19T02:33:27.432Z,7.21
2023-05-19T02:34:27.414Z,7.23
2023-05-19T02:35:27.411Z,7.21
2023-05-19T02:36:27.406Z,7.18
2023-05-19T02:37:27.369Z,7.15
2023-05-19T02:38:27.381Z,7.15
2023-05-19T02:39:27.362Z,7.14
2023-05-19T02:40:27.373Z,7.15
2023-05-19T02:41:27.350Z,7.14
2023-05-19T02:42:27.324Z,7.12
2023-05-19T02:43:27.317Z,7.12
2023-05-19T02:44:27.299Z,7.12
2023-05-19T02:45:27.300Z,7.12
2023-05-19T02:46:27.323Z,7.11
2023-05-19T02:47:27.283Z,7.09
2023-05-19T02:48:27.251Z,7.11
2023-05-19T02:49:27.277Z,7.12
2023-05-19T02:50:27.247Z,7.11
2023-05-19T02:51:27.212Z,7.08
2023-05-19T02:52:27.213Z,7.08
2023-05-19T02:53:27.195Z,7.08
2023-05-19T02:54:27.228Z,7.09
2023-05-19T02:55:27.173Z,7.08
2023-05-19T02:56:27.166Z,7.08
2023-05-19T02:57:27.161Z,7.05
2023-05-19T02:58:27.140Z,7.04
2023-05-19T02:59:27.130Z,7.01
2023-05-19T03:00:27.132Z,6.99
2023-05-19T03:01:27.161Z,6.96
2023-05-19T03:02:27.195Z,6.96
2023-05-19T03:03:27.166Z,6.94
2023-05-19T03:04:27.083Z,6.94
2023-05-19T03:05:27.060Z,6.97
2023-05-19T03:06:27.048Z,6.97
2023-05-19T03:07:27.034Z,6.99
2023-05-19T03:08:27.041Z,6.97
2023-05-19T03:09:27.034Z,6.99
2023-05-19T03:10:27.013Z,6.99
2023-05-19T03:11:26.993Z,6.97
2023-05-19T03:12:26.984Z,6.93
2023-05-19T03:13:27.009Z,6.89
2023-05-19T03:14:26.961Z,6.87
2023-05-19T03:15:26.954Z,6.87
2023-05-19T03:16:26.968Z,6.86
2023-05-19T03:17:26.982Z,6.89
2023-05-19T03:18:26.986Z,6.87
2023-05-19T03:19:26.956Z,6.86
2023-05-19T03:20:26.900Z,6.86
2023-05-19T03:21:26.881Z,6.87
2023-05-19T03:22:26.887Z,6.87
2023-05-19T03:23:26.863Z,6.89
2023-05-19T03:24:26.856Z,6.89
2023-05-19T03:25:26.843Z,6.90
2023-05-19T03:26:26.841Z,6.89
2023-05-19T03:27:26.828Z,6.87
2023-05-19T03:28:26.809Z,6.87
2023-05-19T03:29:26.822Z,6.86
2023-05-19T03:30:26.786Z,6.83
2023-05-19T03:31:26.872Z,6.81
2023-05-19T03:32:26.856Z,6.76
2023-05-19T03:33:26.918Z,6.75
2023-05-19T03:34:26.758Z,6.72
2023-05-19T03:35:26.751Z,6.71
2023-05-19T03:36:26.749Z,6.69
2023-05-19T03:37:26.722Z,6.65
2023-05-19T03:38:26.707Z,6.65
2023-05-19T03:39:26.690Z,6.65
2023-05-19T03:40:26.681Z,6.64
2023-05-19T03:41:26.685Z,6.65
2023-05-19T03:42:26.661Z,6.65
2023-05-19T03:43:26.675Z,6.64
2023-05-19T03:44:26.674Z,6.68
2023-05-19T03:45:26.621Z,6.68
2023-05-19T03:46:26.847Z,6.69
2023-05-19T03:47:26.637Z,6.71
2023-05-19T03:48:26.598Z,6.72
2023-05-19T03:49:26.594Z,6.73
2023-05-19T03:50:26.587Z,6.78
2023-05-19T03:51:26.570Z,6.79
2023-05-19T03:52:26.552Z,6.79
2023-05-19T03:53:26.554Z,6.79
2023-05-19T03:54:26.525Z,6.76
2023-05-19T03:55:26.522Z,6.81
2023-05-19T03:56:26.536Z,6.79
2023-05-19T03:57:26.490Z,6.81
2023-05-19T03:58:26.483Z,6.81
2023-05-19T03:59:26.479Z,6.79
2023-05-19T04:00:26.491Z,6.81
2023-05-19T04:01:26.456Z,6.81
2023-05-19T04:02:26.588Z,6.81
2023-05-19T04:03:26.530Z,6.82
2023-05-19T04:04:26.452Z,6.83
2023-05-19T04:05:26.403Z,6.83
2023-05-19T04:06:26.399Z,6.83
2023-05-19T04:07:26.380Z,6.83
2023-05-19T04:08:26.402Z,6.86
2023-05-19T04:09:26.369Z,6.89
2023-05-19T04:10:26.349Z,6.90
2023-05-19T04:11:26.343Z,6.90
2023-05-19T04:12:26.366Z,6.91
2023-05-19T04:13:26.330Z,6.94
2023-05-19T04:14:26.312Z,6.96
2023-05-19T04:15:26.297Z,6.96
2023-05-19T04:16:26.474Z,6.97
2023-05-19T04:17:26.329Z,6.99
2023-05-19T04:18:28.809Z,7.01
2023-05-19T04:19:26.275Z,7.04
2023-05-19T04:20:26.246Z,7.04
2023-05-19T04:21:26.227Z,7.05
2023-05-19T04:22:26.215Z,7.07
2023-05-19T04:23:26.216Z,7.11
2023-05-19T04:24:26.202Z,7.11
2023-05-19T04:25:26.184Z,7.14
2023-05-19T04:26:26.174Z,7.16
2023-05-19T04:27:26.172Z,7.19
2023-05-19T04:28:26.175Z,7.23
2023-05-19T04:29:26.138Z,7.26
2023-05-19T04:30:26.144Z,7.30
2023-05-19T04:31:26.193Z,7.33
2023-05-19T04:32:26.212Z,7.36
2023-05-19T04:33:26.099Z,7.39
2023-05-19T04:34:26.114Z,7.42
2023-05-19T04:35:26.066Z,7.47
2023-05-19T04:36:26.065Z,7.48
2023-05-19T04:37:26.071Z,7.48
2023-05-19T04:38:26.048Z,7.52
2023-05-19T04:39:26.035Z,7.54
2023-05-19T04:40:26.044Z,7.57
2023-05-19T04:41:26.020Z,7.60
2023-05-19T04:42:26.011Z,7.60
2023-05-19T04:43:25.982Z,7.63
2023-05-19T04:44:25.976Z,7.66
2023-05-19T04:45:25.961Z,7.67
2023-05-19T04:46:25.993Z,7.70
2023-05-19T04:47:25.985Z,7.73
2023-05-19T04:48:25.929Z,7.76
2023-05-19T04:49:25.921Z,7.77
2023-05-19T04:50:25.916Z,7.82
2023-05-19T04:51:25.928Z,7.85
2023-05-19T04:52:25.895Z,7.89
2023-05-19T04:53:25.873Z,7.91
2023-05-19T04:54:25.873Z,7.94
2023-05-19T04:55:25.863Z,7.96
2023-05-19T04:56:25.856Z,8.03
2023-05-19T04:57:25.833Z,8.07
2023-05-19T04:58:25.832Z,8.12
2023-05-19T04:59:25.808Z,8.17
2023-05-19T05:00:25.817Z,8.20
2023-05-19T05:01:25.834Z,8.25
2023-05-19T05:02:25.857Z,8.31
2023-05-19T05:03:25.830Z,8.37
2023-05-19T05:04:25.777Z,8.45
2023-05-19T05:05:25.757Z,8.50
2023-05-19T05:06:25.735Z,8.57
2023-05-19T05:07:25.711Z,8.63
2023-05-19T05:08:25.701Z,8.70
2023-05-19T05:09:25.704Z,8.76
2023-05-19T05:10:25.695Z,8.83
2023-05-19T05:11:25.673Z,8.89
2023-05-19T05:12:25.673Z,8.96
2023-05-19T05:13:25.662Z,8.98
2023-05-19T05:14:25.668Z,9.06
2023-05-19T05:15:25.624Z,9.12
2023-05-19T05:16:25.659Z,9.16
2023-05-19T05:17:25.721Z,9.22
2023-05-19T05:18:25.593Z,9.32
2023-05-19T05:19:25.707Z,9.32
2023-05-19T05:20:25.576Z,9.37
2023-05-19T05:21:25.553Z,9.42
2023-05-19T05:22:25.553Z,9.48
2023-05-19T05:23:25.548Z,9.52
2023-05-19T05:24:25.537Z,9.58
2023-05-19T05:25:25.515Z,9.59
2023-05-19T05:26:25.505Z,9.63
2023-05-19T05:27:25.499Z,9.71
2023-05-19T05:28:25.496Z,9.73
2023-05-19T05:29:25.467Z,9.74
2023-05-19T05:30:25.490Z,9.74
2023-05-19T05:31:25.474Z,9.77
2023-05-19T05:32:25.506Z,9.86
2023-05-19T05:33:25.539Z,9.93
2023-05-19T05:34:25.432Z,10.04
2023-05-19T05:35:25.512Z,10.09
2023-05-19T05:36:25.412Z,10.11
2023-05-19T05:37:25.384Z,10.16
2023-05-19T05:38:25.399Z,10.18
2023-05-19T05:39:25.358Z,10.25
2023-05-19T05:40:25.367Z,10.34
2023-05-19T05:41:25.336Z,10.36
2023-05-19T05:43:25.334Z,10.65
2023-05-19T05:44:25.318Z,10.75
2023-05-19T05:45:25.291Z,10.68
2023-05-19T05:46:25.444Z,10.70
2023-05-19T05:47:25.324Z,10.73
2023-05-19T05:48:25.266Z,10.76
2023-05-19T05:49:25.250Z,10.83
2023-05-19T05:50:25.240Z,10.90
2023-05-19T05:51:25.225Z,10.94
2023-05-19T05:52:25.231Z,11.01
2023-05-19T05:53:25.201Z,11.16
2023-05-19T05:54:25.199Z,11.28
2023-05-19T05:55:25.189Z,11.23
2023-05-19T05:56:25.194Z,11.23
2023-05-19T05:57:25.172Z,11.27
2023-05-19T05:58:25.154Z,11.31
2023-05-19T05:59:25.143Z,11.44
2023-05-19T06:00:25.134Z,11.57
2023-05-19T06:01:25.135Z,11.69
2023-05-19T06:02:25.201Z,11.82
2023-05-19T06:03:25.248Z,11.85
2023-05-19T06:04:25.106Z,11.87
2023-05-19T06:05:25.116Z,11.87
2023-05-19T06:06:25.093Z,11.98
2023-05-19T06:07:25.054Z,12.08
2023-05-19T06:08:25.048Z,12.11
2023-05-19T06:09:25.052Z,12.11
2023-05-19T06:10:25.045Z,12.23
2023-05-19T06:11:25.021Z,12.38
2023-05-19T06:12:25.007Z,12.40
2023-05-19T06:13:24.992Z,12.43
2023-05-19T06:14:24.982Z,12.48
2023-05-19T06:15:24.989Z,12.55
2023-05-19T06:16:24.995Z,12.67
2023-05-19T06:17:24.971Z,12.73
2023-05-19T06:18:24.952Z,12.73
2023-05-19T06:19:25.035Z,12.77
2023-05-19T06:20:24.923Z,12.66
2023-05-19T06:21:24.903Z,12.51
2023-05-19T06:22:24.893Z,12.48
2023-05-19T06:23:24.877Z,12.59
2023-05-19T06:24:24.870Z,12.79
2023-05-19T06:25:24.881Z,12.95
2023-05-19T06:26:24.851Z,13.01
2023-05-19T06:27:24.838Z,13.13
2023-05-19T06:28:24.846Z,13.27
2023-05-19T06:29:24.842Z,13.35
2023-05-19T06:30:24.813Z,13.43
2023-05-19T06:31:24.872Z,13.53
2023-05-19T06:32:24.854Z,13.61
2023-05-19T06:33:27.397Z,13.79
2023-05-19T06:34:24.775Z,13.87
2023-05-19T06:35:24.756Z,13.76
2023-05-19T06:36:24.741Z,13.75
2023-05-19T06:37:24.722Z,13.69
2023-05-19T06:38:24.740Z,13.79
2023-05-19T06:39:24.734Z,13.81
2023-05-19T06:40:24.696Z,13.86
2023-05-19T06:41:24.681Z,13.93
2023-05-19T06:42:24.675Z,14.05
2023-05-19T06:43:24.663Z,14.16
2023-05-19T06:44:24.668Z,14.23
2023-05-19T06:45:24.637Z,14.29
2023-05-19T06:46:24.660Z,14.30
2023-05-19T06:47:24.634Z,14.36
2023-05-19T06:48:24.605Z,14.38
2023-05-19T06:49:24.617Z,14.45
2023-05-19T06:50:24.589Z,14.46
2023-05-19T06:51:24.577Z,14.60
2023-05-19T06:52:24.570Z,14.75
2023-05-19T06:53:24.547Z,14.86
2023-05-19T06:54:24.553Z,14.94
2023-05-19T06:55:24.537Z,14.87
2023-05-19T06:56:24.530Z,14.78
2023-05-19T06:57:24.506Z,14.75
2023-05-19T06:58:24.525Z,14.74
2023-05-19T06:59:24.557Z,14.74
2023-05-19T07:00:24.471Z,14.83
2023-05-19T07:01:24.479Z,14.91
2023-05-19T07:02:24.460Z,14.95
2023-05-19T07:03:24.555Z,15.01
2023-05-19T07:04:24.460Z,15.22
2023-05-19T07:05:24.429Z,15.43
2023-05-19T07:06:24.421Z,15.56
2023-05-19T07:07:24.389Z,15.56
2023-05-19T07:08:24.415Z,15.67
2023-05-19T07:09:24.387Z,15.74
2023-05-19T07:10:24.353Z,15.78
2023-05-19T07:11:24.355Z,15.70
2023-05-19T07:12:24.348Z,15.48
2023-05-19T07:13:25.920Z,15.49
2023-05-19T07:14:24.318Z,15.48
2023-05-19T07:15:24.305Z,15.20
2023-05-19T07:16:24.316Z,15.31
2023-05-19T07:17:24.956Z,15.44
2023-05-19T07:18:24.268Z,15.59
2023-05-19T07:19:24.383Z,15.74
2023-05-19T07:20:24.250Z,15.91
2023-05-19T07:21:24.244Z,15.99
2023-05-19T07:22:24.255Z,16.07
2023-05-19T07:23:24.219Z,16.04
2023-05-19T07:24:24.205Z,15.95
2023-05-19T07:25:24.196Z,15.86
2023-05-19T07:26:24.189Z,15.85
2023-05-19T07:27:24.202Z,15.88
2023-05-19T07:28:24.186Z,15.92
2023-05-19T07:29:24.151Z,16.16
2023-05-19T07:30:24.135Z,16.14
2023-05-19T07:31:24.170Z,16.10
2023-05-19T07:32:24.190Z,15.77
2023-05-19T07:33:24.107Z,15.89
2023-05-19T07:34:24.090Z,16.18
2023-05-19T07:35:24.084Z,16.54
2023-05-19T07:36:24.077Z,16.80
2023-05-19T07:37:24.062Z,16.82
2023-05-19T07:38:24.046Z,16.33
2023-05-19T07:39:24.340Z,16.45
2023-05-19T07:40:24.025Z,16.40
2023-05-19T07:41:24.032Z,16.63
2023-05-19T07:42:24.002Z,16.91
2023-05-19T07:43:24.006Z,17.03
2023-05-19T07:44:23.980Z,17.14
2023-05-19T07:45:23.987Z,17.35
2023-05-19T07:46:24.024Z,17.63
2023-05-19T07:47:23.952Z,17.86
2023-05-19T07:48:23.938Z,17.77
2023-05-19T07:49:23.930Z,18.10
2023-05-19T07:50:23.927Z,18.19
2023-05-19T07:51:23.905Z,18.41
2023-05-19T07:52:23.891Z,18.90
2023-05-19T07:53:23.895Z,19.34
2023-05-19T07:54:23.888Z,19.61
2023-05-19T07:55:23.882Z,19.01
2023-05-19T07:56:23.847Z,19.50
2023-05-19T07:57:23.839Z,20.27
2023-05-19T07:58:23.825Z,20.87
2023-05-19T07:59:23.817Z,21.36
2023-05-19T08:00:23.804Z,21.63
2023-05-19T08:01:23.802Z,22.04
2023-05-19T08:02:23.842Z,21.67
2023-05-19T08:03:24.046Z,21.01
2023-05-19T08:04:23.820Z,21.73
2023-05-19T08:05:23.752Z,21.68
2023-05-19T08:06:23.734Z,21.96
2023-05-19T08:07:23.728Z,22.12
2023-05-19T08:08:23.716Z,22.30
2023-05-19T08:09:23.722Z,22.60
2023-05-19T08:10:23.795Z,21.59
2023-05-19T08:11:23.682Z,21.38
2023-05-19T08:12:23.677Z,21.77
2023-05-19T08:13:23.661Z,21.31
2023-05-19T08:14:23.668Z,21.64
2023-05-19T08:15:23.646Z,21.48
2023-05-19T08:16:23.700Z,21.63
2023-05-19T08:17:23.634Z,21.59
2023-05-19T08:18:23.621Z,21.40
2023-05-19T08:19:23.785Z,21.37
2023-05-19T08:20:23.610Z,21.52
2023-05-19T08:21:23.594Z,22.04
2023-05-19T08:22:23.571Z,22.64
2023-05-19T08:23:23.570Z,23.18
2023-05-19T08:24:23.547Z,22.61
2023-05-19T08:25:23.566Z,22.19
2023-05-19T08:26:23.513Z,22.15
2023-05-19T08:27:23.521Z,21.06
2023-05-19T08:28:23.513Z,19.57
2023-05-19T08:29:23.488Z,18.16
2023-05-19T08:30:23.502Z,17.63
2023-05-19T08:31:23.503Z,17.96
2023-05-19T08:32:23.489Z,19.45
2023-05-19T08:33:23.469Z,20.61
2023-05-19T08:34:23.460Z,21.22
2023-05-19T08:35:23.428Z,20.90
2023-05-19T08:36:23.411Z,21.00
2023-05-19T08:37:23.392Z,21.21
2023-05-19T08:38:23.404Z,21.61
2023-05-19T08:39:23.373Z,22.41
2023-05-19T08:40:23.404Z,22.61
2023-05-19T08:41:23.372Z,22.52
2023-05-19T08:42:23.362Z,22.60
2023-05-19T08:43:23.345Z,22.41
2023-05-19T08:44:23.339Z,22.66
2023-05-19T08:45:23.328Z,22.54
2023-05-19T08:46:23.346Z,22.26
2023-05-19T08:47:23.300Z,22.19
2023-05-19T08:48:23.283Z,21.90
2023-05-19T08:49:25.407Z,21.13
2023-05-19T08:50:23.296Z,21.58
2023-05-19T08:51:23.244Z,22.17
2023-05-19T08:52:23.266Z,22.48
2023-05-19T08:53:33.236Z,22.51
2023-05-19T09:01:39.852Z,22.42
2023-05-19T09:01:45.161Z,19.21
2023-05-19T09:02:55.074Z,18.94
2023-05-19T09:03:45.187Z,18.99
2023-05-19T09:04:45.164Z,19.12
2023-05-19T09:05:45.159Z,19.34
2023-05-19T09:06:45.231Z,19.40
2023-05-19T09:07:45.091Z,18.97
2023-05-19T09:08:45.104Z,18.87
2023-05-19T09:09:45.078Z,18.60
2023-05-19T09:10:45.085Z,18.44
2023-05-19T09:11:45.047Z,18.46
2023-05-19T09:12:45.045Z,18.65
2023-05-19T09:13:45.041Z,18.60
2023-05-19T09:14:45.015Z,18.54
2023-05-19T09:15:45.017Z,18.49
2023-05-19T09:16:45.076Z,18.34
2023-05-19T09:17:45.014Z,18.16
2023-05-19T09:18:45.016Z,17.95
2023-05-19T09:19:44.973Z,17.63
2023-05-19T09:20:44.963Z,17.65
2023-05-19T09:21:44.941Z,17.71
2023-05-19T09:22:44.928Z,17.89
2023-05-19T09:23:44.916Z,17.91
2023-05-19T09:24:44.953Z,18.02
2023-05-19T09:25:44.904Z,18.19
2023-05-19T09:26:44.889Z,18.35
2023-05-19T09:27:44.868Z,18.42
2023-05-19T09:28:44.866Z,18.65
2023-05-19T09:29:44.857Z,18.60
2023-05-19T09:30:44.843Z,18.72
2023-05-19T09:31:44.854Z,18.35
2023-05-19T09:32:44.855Z,18.36
2023-05-19T09:33:46.016Z,18.39
2023-05-19T09:34:44.809Z,18.07
2023-05-19T09:35:44.784Z,17.86
2023-05-19T09:36:44.774Z,17.84
2023-05-19T09:37:44.780Z,17.77
2023-05-19T09:38:44.788Z,17.73
2023-05-19T09:39:44.744Z,17.96
2023-05-19T09:40:44.728Z,18.14
2023-05-19T09:41:44.717Z,18.32
2023-05-19T09:42:44.721Z,18.44
2023-05-19T09:43:44.707Z,18.47
2023-05-19T09:44:44.686Z,18.50
2023-05-19T09:45:44.717Z,18.41
2023-05-19T09:46:44.767Z,18.50
2023-05-19T09:47:44.725Z,18.60
2023-05-19T09:48:44.671Z,18.75
2023-05-19T09:49:44.629Z,18.84
2023-05-19T09:50:44.619Z,18.84
2023-05-19T09:51:44.603Z,18.91
2023-05-19T09:52:44.633Z,19.01
2023-05-19T09:53:44.591Z,19.06
2023-05-19T09:54:44.578Z,18.90
2023-05-19T09:55:44.567Z,18.89
2023-05-19T09:56:44.557Z,18.93
2023-05-19T09:57:44.554Z,19.02
2023-05-19T09:58:44.531Z,19.17
2023-05-19T09:59:44.520Z,19.10
2023-05-19T10:00:44.535Z,18.83
2023-05-19T10:01:44.556Z,18.76
2023-05-19T10:02:44.525Z,18.79
2023-05-19T10:03:44.471Z,18.94
2023-05-19T10:04:44.491Z,19.02
2023-05-19T10:05:44.456Z,19.07
2023-05-19T10:06:44.457Z,19.09
2023-05-19T10:07:44.442Z,18.89
2023-05-19T10:08:44.428Z,18.89
2023-05-19T10:09:44.410Z,18.89
2023-05-19T10:10:44.419Z,18.86
2023-05-19T10:11:44.407Z,18.62
2023-05-19T10:12:44.373Z,18.51
2023-05-19T10:13:44.372Z,18.46
2023-05-19T10:14:44.353Z,18.51
2023-05-19T10:15:57.193Z,18.38
2023-05-19T10:16:44.378Z,18.39
2023-05-19T10:17:44.334Z,18.21
2023-05-19T10:18:44.311Z,18.26
2023-05-19T10:19:44.319Z,18.26
2023-05-19T10:20:44.296Z,18.34
2023-05-19T10:21:44.286Z,18.42
2023-05-19T10:22:44.266Z,18.41
2023-05-19T10:23:44.260Z,18.47
2023-05-19T10:24:44.246Z,18.36
2023-05-19T10:25:44.264Z,18.11
2023-05-19T10:26:44.219Z,17.91
2023-05-19T10:27:44.239Z,18.10
2023-05-19T10:28:44.219Z,18.36
2023-05-19T10:29:44.209Z,18.60
2023-05-19T10:30:44.190Z,18.69
2023-05-19T10:31:44.187Z,18.47
2023-05-19T10:32:44.207Z,18.26
2023-05-19T10:33:44.148Z,18.28
2023-05-19T10:34:44.161Z,18.13
2023-05-19T10:35:45.380Z,18.20
2023-05-19T10:36:44.117Z,18.36
2023-05-19T10:37:44.103Z,18.53
2023-05-19T10:38:44.108Z,18.65
2023-05-19T10:39:44.096Z,18.76
2023-05-19T10:40:44.070Z,18.90
2023-05-19T10:41:45.074Z,19.02
2023-05-19T10:42:44.045Z,19.09
2023-05-19T10:43:44.038Z,19.12
2023-05-19T10:44:44.037Z,19.09
2023-05-19T10:45:44.020Z,18.79
2023-05-19T10:46:44.041Z,18.74
2023-05-19T10:47:44.016Z,18.69
2023-05-19T10:48:43.994Z,18.57
2023-05-19T10:49:43.989Z,18.41
2023-05-19T10:50:43.959Z,18.21
2023-05-19T10:51:43.950Z,18.21
2023-05-19T10:52:43.933Z,18.31
2023-05-19T10:53:43.939Z,18.32
2023-05-19T10:54:43.924Z,18.29
2023-05-19T10:55:43.910Z,18.31
2023-05-19T10:56:43.911Z,18.25
2023-05-19T10:57:43.888Z,18.29
2023-05-19T10:58:43.926Z,18.39
2023-05-19T10:59:43.869Z,18.51
2023-05-19T11:00:43.851Z,18.68
2023-05-19T11:01:43.891Z,18.94
2023-05-19T11:02:43.995Z,18.99
2023-05-19T11:03:43.863Z,19.12
2023-05-19T11:04:43.805Z,19.12
2023-05-19T11:05:43.819Z,18.87
2023-05-19T11:06:43.790Z,18.75
2023-05-19T11:07:43.824Z,18.79
2023-05-19T11:08:43.762Z,18.78
2023-05-19T11:09:43.756Z,18.50
2023-05-19T11:10:43.738Z,18.54
2023-05-19T11:11:43.735Z,18.59
2023-05-19T11:12:43.742Z,18.69
2023-05-19T11:13:43.716Z,18.84
2023-05-19T11:14:43.713Z,18.99
2023-05-19T11:15:43.688Z,19.02
2023-05-19T11:16:43.726Z,18.93
2023-05-19T11:17:43.698Z,18.78
2023-05-19T11:18:43.716Z,18.82
2023-05-19T11:19:43.645Z,18.91
2023-05-19T11:20:43.655Z,19.09
2023-05-19T11:21:43.640Z,19.17
2023-05-19T11:22:43.616Z,19.25
2023-05-19T11:23:43.676Z,19.06
2023-05-19T11:24:43.608Z,19.01
2023-05-19T11:25:43.634Z,19.20
2023-05-19T11:26:43.576Z,19.31
2023-05-19T11:27:43.552Z,19.20
2023-05-19T11:28:43.540Z,18.93
2023-05-19T11:29:43.537Z,18.72
2023-05-19T11:30:43.538Z,18.62
2023-05-19T11:31:43.545Z,18.65
2023-05-19T11:32:43.538Z,18.72
2023-05-19T11:33:43.493Z,18.89
2023-05-19T11:34:43.477Z,18.99
2023-05-19T11:35:43.481Z,19.09
2023-05-19T11:36:43.469Z,19.09
2023-05-19T11:37:43.449Z,19.12
2023-05-19T11:38:43.436Z,19.30
2023-05-19T11:39:43.426Z,19.49
2023-05-19T11:40:43.417Z,19.61
2023-05-19T11:41:43.410Z,19.61
2023-05-19T11:42:43.393Z,19.35
2023-05-19T11:43:43.380Z,19.23
2023-05-19T11:44:43.365Z,19.15
2023-05-19T11:45:43.376Z,19.07
2023-05-19T11:46:43.411Z,19.12
2023-05-19T11:48:00.260Z,19.06
2023-05-19T11:48:43.417Z,18.90
2023-05-19T11:49:43.355Z,18.83
2023-05-19T11:50:43.312Z,18.79
2023-05-19T11:51:43.288Z,18.75
2023-05-19T11:52:43.279Z,18.75
2023-05-19T11:53:43.276Z,18.91
2023-05-19T11:54:43.265Z,19.12
2023-05-19T11:55:43.251Z,19.15
2023-05-19T11:56:43.234Z,19.17
2023-05-19T11:57:47.049Z,19.16
2023-05-19T11:58:43.217Z,19.09
2023-05-19T11:59:43.219Z,19.12
2023-05-19T12:00:43.190Z,19.05
2023-05-19T12:01:43.182Z,18.79
2023-05-19T12:02:43.253Z,18.78
2023-05-19T12:03:43.248Z,18.89
2023-05-19T12:04:43.272Z,18.97
2023-05-19T12:05:43.893Z,18.79
2023-05-19T12:06:43.144Z,18.68
2023-05-19T12:07:43.129Z,18.65
2023-05-19T12:08:43.145Z,18.78
2023-05-19T12:09:43.105Z,18.91
2023-05-19T12:10:43.074Z,19.06
2023-05-19T12:11:43.076Z,19.24
2023-05-19T12:12:43.055Z,19.40
2023-05-19T12:13:43.063Z,19.57
2023-05-19T12:14:43.034Z,19.65
2023-05-19T12:15:43.037Z,19.57
2023-05-19T12:16:43.068Z,19.24
2023-05-19T12:17:43.085Z,19.06
2023-05-19T12:18:43.054Z,19.02
2023-05-19T12:19:42.989Z,18.96
2023-05-19T12:20:42.974Z,18.83
2023-05-19T12:21:42.969Z,18.84
2023-05-19T12:22:42.976Z,18.76
2023-05-19T12:23:42.942Z,18.69
2023-05-19T12:24:42.924Z,18.78
2023-05-19T12:25:42.929Z,18.99
2023-05-19T12:26:42.904Z,19.12
2023-05-19T12:27:42.922Z,19.21
2023-05-19T12:28:42.881Z,19.35
2023-05-19T12:29:42.881Z,19.17
2023-05-19T12:30:42.867Z,19.20
2023-05-19T12:31:42.884Z,19.21
2023-05-19T12:32:42.880Z,19.27
2023-05-19T12:33:42.829Z,19.17
2023-05-19T12:34:42.821Z,19.10
2023-05-19T12:35:42.813Z,19.06
2023-05-19T12:36:42.809Z,18.97
2023-05-19T12:37:42.792Z,18.87
2023-05-19T12:38:42.773Z,18.89
2023-05-19T12:39:42.765Z,18.84
2023-05-19T12:40:42.756Z,18.87
2023-05-19T12:41:42.753Z,19.02
2023-05-19T12:42:42.732Z,18.97
2023-05-19T12:43:42.724Z,18.99
2023-05-19T12:44:42.721Z,19.07
2023-05-19T12:45:42.836Z,19.25
2023-05-19T12:46:42.700Z,19.46
2023-05-19T12:47:42.722Z,19.65
2023-05-19T12:48:42.660Z,19.78
2023-05-19T12:49:42.657Z,19.75
2023-05-19T12:50:42.679Z,19.62
2023-05-19T12:51:42.704Z,19.49
2023-05-19T12:52:42.619Z,19.39
2023-05-19T12:53:42.612Z,19.39
2023-05-19T12:54:42.735Z,19.32
2023-05-19T12:55:42.601Z,19.20
2023-05-19T12:56:42.595Z,19.15
2023-05-19T12:57:42.585Z,19.12
2023-05-19T12:58:42.570Z,18.97
2023-05-19T12:59:42.540Z,18.94
2023-05-19T13:00:42.757Z,19.07
2023-05-19T13:01:42.538Z,19.23
2023-05-19T13:02:42.597Z,19.28
2023-05-19T13:03:42.561Z,19.28
2023-05-19T13:04:42.512Z,19.39
2023-05-19T13:05:42.486Z,19.55
2023-05-19T13:06:42.488Z,19.61
2023-05-19T13:07:42.460Z,19.67
2023-05-19T13:08:42.460Z,19.52
2023-05-19T13:09:42.446Z,19.31
2023-05-19T13:10:42.454Z,19.27